• Join FlightAware (Why Join?)
  • Login
  • US Flag 
01:09AM EDT


 

Airport Tracker/Info


-or-


 

Live Flight TrackerFlight Track Log ✈ N803ER ✈ 06-May-2013 ✈ KPWK - KTOL

Flight Track Log - Related Links

Times and Time Zones

All times are in EDT time to prevent confusion due to time zone crossing. See the N803ER flight status page for this flight to view local times or setup timezone preferences in your user account.

Time Position Orientation Groundspeed Altitude Reporting Facility
EDT Latitude Longitude Course Direction KTS MPH feet Rate Location/Type
07:04PM 42.0956 -87.4106 100° East 111 128 4,200  Level Chicago Center
07:06PM 42.0884 -87.3533 140° Southeast  Level Estimated
07:06PM 42.0833 -87.3167 140° Southeast 124 143 4,100  Level Chicago TRACON
07:07PM 42.0667 -87.2833 124° Southeast 118 136 4,200 120 Climbing Chicago TRACON
07:07PM 42.0731 -87.2750 44° Northeast 123 142 4,300 360 Climbing Chicago Center
07:08PM 42.0678 -87.2361 100° East 117 135 4,700 360 Climbing Chicago Center
07:09PM 42.0619 -87.1922 100° East 107 123 5,100 240 Climbing Chicago Center
07:10PM 42.0564 -87.1539 101° East 104 120 5,200  Climbing Chicago Center
07:11PM 42.0525 -87.1089 97° East 114 131 5,200  Level Chicago Center
07:12PM 42.0469 -87.0647 100° East 119 137 5,200 -60 Level Chicago Center
07:13PM 42.0425 -87.0183 97° East 124 143 5,100 -60 Descending Chicago Center
07:14PM 42.0431 -86.9700 89° East 119 137 5,100 -60 Level Chicago Center
07:15PM 42.0356 -86.9219 102° East 120 138 5,000 -60 Descending Chicago Center
07:17PM 42.0253 -86.8797 108° East 120 138 5,000  Level Chicago Center
07:18PM 42.0203 -86.8378 99° East 117 135 5,000  Level Chicago Center
07:19PM 42.0150 -86.7931 99° East 120 138 5,000  Level Chicago Center
07:20PM 42.0044 -86.7503 108° East 120 138 5,000  Level Chicago Center
07:21PM 41.9992 -86.6981 98° East 119 137 5,000  Level Chicago Center
07:22PM 41.9925 -86.6583 103° East 118 136 5,000  Level Chicago Center
07:23PM 41.9847 -86.6147 103° East 120 138 5,000  Level Chicago Center
07:24PM 41.9808 -86.5719 97° East 116 133 5,000  Level Chicago Center
07:25PM 41.9756 -86.5292 99° East 117 135 5,000  Level Chicago Center
07:27PM 41.9598 -86.4660 100° East  Level FlightAware Approximate
07:27PM 41.9606 -86.4353 100° East 116 133 5,000  Level Chicago Center
07:28PM 41.9519 -86.3925 105° East 118 136 5,100  Climbing Chicago Center
07:29PM 41.9433 -86.3506 105° East 118 136 5,000 -60 Descending Chicago Center
07:30PM 41.9342 -86.3089 106° East 116 133 5,000  Level Chicago Center
07:31PM 41.9289 -86.2647 99° East 120 138 5,100  Climbing Chicago Center
07:32PM 41.9194 -86.2122 104° East 121 139 5,100  Level Chicago Center
07:33PM 41.9111 -86.1664 104° East 125 144 5,100  Level Chicago Center
07:34PM 41.9028 -86.1203 104° East 129 148 5,100 -60 Level Chicago Center
07:36PM 41.8961 -86.0665 99° East  Level FlightAware Approximate
07:36PM 41.8881 -86.0256 99° East 131 151 5,000  Level Chicago Center
07:38PM 41.8820 -85.9742 99° East  Level FlightAware Approximate
07:38PM 41.8722 -85.9292 99° East 123 142 5,000  Level Chicago Center
07:39PM 41.8636 -85.8864 105° East 122 140 5,000  Level Chicago Center
07:42PM 41.8555 -85.7998 97° East  Level FlightAware Approximate
07:43PM 41.8275 -85.7167 99° East 118 136 5,000  Level Chicago Center
07:44PM 41.8206 -85.6631 100° East 121 139 5,100  Climbing Chicago Center
07:45PM 41.8172 -85.6167 95° East 123 142 5,100 -60 Level Chicago Center
07:46PM 41.8069 -85.5731 108° East 124 143 5,000  Descending Chicago Center
07:48PM 41.8034 -85.5336 97° East  Level FlightAware Approximate
07:49PM 41.8291 -85.5322 99° East  Level FlightAware Approximate
07:49PM 41.7908 -85.4869 97° East 117 135 5,100  Level Chicago Center
07:50PM 41.7853 -85.4419 99° East 121 139 5,100 -60 Level Chicago Center
07:51PM 41.7786 -85.3967 101° East 122 140 5,000  Descending Chicago Center
07:53PM 41.7583 -85.2997 106° East 121 139 5,100  Climbing Chicago Center
07:55PM 41.7447 -85.2128 102° East 119 137 5,000 -60 Descending Chicago Center
07:56PM 41.7375 -85.1706 103° East 118 136 5,000  Level Chicago Center
07:57PM 41.7303 -85.1281 103° East 117 135 5,000  Level Chicago Center
07:58PM 41.7236 -85.0864 102° East 116 133 5,000  Level Chicago Center
07:59PM 41.7147 -85.0364 103° East 115 132 5,000  Level Chicago Center
08:00PM 41.7056 -84.9950 107° East 116 133 5,000 -60 Level Chicago Center
08:02PM 41.7135 -84.9351 80° East  Level FlightAware Approximate
08:02PM 41.6953 -84.9125 80° East 113 130 4,900  Level Chicago Center
08:03PM 41.6856 -84.8722 108° East 113 130 5,000  Climbing Chicago Center
08:05PM 41.7104 -84.8260 54° Northeast  Level FlightAware Approximate
08:06PM 41.6653 -84.7428 101° East 111 128 5,000  Level Chicago Center
08:07PM 41.6564 -84.7044 107° East 109 125 5,000  Level Chicago Center
08:08PM 41.6497 -84.6631 102° East 110 127 5,000 -60 Level Chicago Center
08:09PM 41.6406 -84.6236 107° East 111 128 4,900  Descending Chicago Center
08:10PM 41.6322 -84.5847 106° East 111 128 5,000  Climbing Chicago Center
08:11PM 41.6242 -84.5372 103° East 110 127 5,000  Level Chicago Center
08:12PM 41.6791 -84.5606 101° East  Level Estimated
08:12PM 41.6181 -84.4961 101° East 111 128 5,000  Level Chicago Center
08:13PM 41.6108 -84.4542 103° East 113 130 5,000  Level Chicago Center
08:14PM 41.6050 -84.4144 101° East 113 130 5,000  Level Chicago Center